Terminal Aerodrome Forecast
Issued by NWS Shreveport, LA

Home | Current Version | Previous Version | Text Only | Print | Product List | Glossary On
Versions: 1 2 3 4 5 6 7 8 9 10 11 12 13 14 15 16 17 18 19 20
000
FTUS44 KSHV 232300 RRA
TAFSHV
TAF
KSHV 232345Z 2400/2424 16007KT P6SM FEW060
     FM240900 17006KT P6SM FEW015 SCT140 BKN250
     FM241500 19014G22KT P6SM BKN035 BKN140 OVC250
     FM242000 24015G24KT P6SM VCTS BKN045CB BKN100 BKN150=

USA.gov is the U.S. government's official web portal to all federal, state and local government web resources and services.